Time;durP1;ratioP1;P1;durP2;ratioP2;P2;SDS_P1;SDS_P2;PMS_P1;PMS_P2;Temp;Humidity;BMP_temperature;BMP_pressure;BME280_temperature;BME280_humidity;BME280_pressure;Samples;Min_cycle;Max_cycle;Signal;HPM_P1;HPM_P2
2021/08/27 00:02:00;;;;;;;1.92;0.88;;;21.10;60.60;;;;;;5110959;28;20571;-62
2021/08/27 00:04:26;;;;;;;1.08;0.75;;;21.10;60.70;;;;;;5111185;28;20247;-62
2021/08/27 00:06:51;;;;;;;1.20;0.55;;;21.10;60.60;;;;;;5111801;28;20169;-62
2021/08/27 00:09:17;;;;;;;0.80;0.52;;;21.10;60.80;;;;;;5111061;28;20177;-62
2021/08/27 00:11:42;;;;;;;1.02;0.73;;;21.10;60.80;;;;;;5113726;28;20173;-61
2021/08/27 00:14:08;;;;;;;0.65;0.55;;;21.10;60.90;;;;;;5115641;28;20185;-62
2021/08/27 00:16:33;;;;;;;0.57;0.55;;;21.10;61.00;;;;;;5114462;28;20165;-62
2021/08/27 00:18:59;;;;;;;2.30;0.65;;;21.10;61.00;;;;;;5115422;28;20261;-62
2021/08/27 00:21:24;;;;;;;0.55;0.50;;;21.10;61.00;;;;;;5114895;28;20178;-62
2021/08/27 00:23:50;;;;;;;0.93;0.68;;;21.10;61.00;;;;;;5114468;28;20544;-61
2021/08/27 00:26:15;;;;;;;1.10;0.68;;;21.10;61.00;;;;;;5114768;28;20231;-61
2021/08/27 00:28:41;;;;;;;1.38;0.60;;;21.10;61.10;;;;;;5114775;28;20188;-64
2021/08/27 00:31:06;;;;;;;1.23;0.60;;;21.10;61.10;;;;;;5114482;28;20177;-63
2021/08/27 00:33:32;;;;;;;1.45;0.50;;;21.10;61.10;;;;;;5114624;28;20172;-62
2021/08/27 00:35:57;;;;;;;2.50;0.70;;;21.10;61.20;;;;;;5114579;28;20180;-62
2021/08/27 00:38:23;;;;;;;0.77;0.50;;;21.10;61.20;;;;;;5113967;28;20696;-62
2021/08/27 00:40:48;;;;;;;0.60;0.50;;;21.00;61.10;;;;;;5114661;28;20260;-62
2021/08/27 00:43:14;;;;;;;0.93;0.63;;;21.10;61.20;;;;;;5114694;28;20632;-61
2021/08/27 00:45:40;;;;;;;0.77;0.70;;;21.10;61.20;;;;;;5113807;28;20278;-63
2021/08/27 00:48:06;;;;;;;1.38;0.80;;;21.00;61.20;;;;;;5096352;28;20196;-62
2021/08/27 00:50:31;;;;;;;2.35;0.90;;;21.00;61.20;;;;;;5114312;28;20193;-63
2021/08/27 00:52:57;;;;;;;1.20;0.57;;;21.00;62.10;;;;;;5113914;28;20238;-62
2021/08/27 00:55:23;;;;;;;1.02;0.60;;;21.00;61.30;;;;;;5095909;28;20172;-62
2021/08/27 00:57:48;;;;;;;2.03;0.73;;;21.00;61.30;;;;;;5114509;28;20173;-62
2021/08/27 01:00:14;;;;;;;1.83;0.85;;;21.00;61.50;;;;;;5114075;28;20273;-63
2021/08/27 01:02:40;;;;;;;0.85;0.60;;;21.00;61.40;;;;;;5114384;28;20177;-64
2021/08/27 01:05:06;;;;;;;0.77;0.70;;;21.00;61.40;;;;;;5113583;28;20638;-62
2021/08/27 01:07:44;;;;;;;1.67;0.95;;;21.00;61.50;;;;;;5113910;28;20173;-63
2021/08/27 01:10:29;;;;;;;1.90;0.60;;;21.00;61.40;;;;;;5080691;28;20175;-63
2021/08/27 01:13:18;;;;;;;0.70;0.70;;;21.00;61.50;;;;;;5095658;28;20260;-62
2021/08/27 01:16:09;;;;;;;1.13;0.40;;;21.00;61.40;;;;;;5081490;28;20177;-62
2021/08/27 01:18:51;;;;;;;1.42;0.80;;;21.00;61.50;;;;;;5080637;28;20276;-62
2021/08/27 01:21:44;;;;;;;0.98;0.57;;;21.00;61.50;;;;;;5095301;28;20188;-62
2021/08/27 01:24:10;;;;;;;0.50;0.50;;;21.00;61.50;;;;;;5097937;28;20177;-62
2021/08/27 01:26:41;;;;;;;0.82;0.50;;;21.00;61.50;;;;;;5094876;28;20176;-62
2021/08/27 01:29:07;;;;;;;1.67;0.70;;;20.90;61.60;;;;;;5079653;28;20229;-62
2021/08/27 01:31:40;;;;;;;1.33;0.60;;;20.90;61.60;;;;;;5095436;28;20564;-62
2021/08/27 01:34:12;;;;;;;0.85;0.50;;;21.00;61.60;;;;;;5078577;28;20170;-63
2021/08/27 01:36:38;;;;;;;1.70;0.60;;;20.90;61.50;;;;;;5095256;28;20624;-63
2021/08/27 01:39:07;;;;;;;1.08;0.70;;;20.90;61.60;;;;;;5095287;28;20177;-63
2021/08/27 01:41:37;;;;;;;1.35;0.95;;;20.90;61.70;;;;;;5094288;28;20540;-62
2021/08/27 01:44:06;;;;;;;0.50;0.50;;;20.90;61.70;;;;;;5095822;28;20279;-63
2021/08/27 01:46:36;;;;;;;0.50;0.50;;;20.90;61.70;;;;;;5113367;28;20184;-63
2021/08/27 01:49:03;;;;;;;0.60;0.50;;;20.90;61.70;;;;;;5078526;28;20220;-62
2021/08/27 01:51:30;;;;;;;1.25;0.57;;;20.90;61.70;;;;;;5078046;28;20229;-62
2021/08/27 01:53:55;;;;;;;1.25;0.57;;;20.90;61.70;;;;;;5113283;28;20209;-63
2021/08/27 01:56:21;;;;;;;1.23;0.50;;;20.90;61.70;;;;;;5094097;28;20199;-63
2021/08/27 01:58:46;;;;;;;0.80;0.47;;;20.90;61.70;;;;;;5078165;28;20181;-63
2021/08/27 02:01:13;;;;;;;0.82;0.50;;;20.90;61.70;;;;;;5094310;28;20165;-62
2021/08/27 02:03:38;;;;;;;1.70;0.70;;;20.90;61.70;;;;;;5077739;28;20177;-63
2021/08/27 02:06:04;;;;;;;1.80;0.63;;;20.90;61.80;;;;;;5094740;28;20212;-62
2021/08/27 02:08:29;;;;;;;0.70;0.60;;;20.90;61.80;;;;;;5112071;28;20231;-63
2021/08/27 02:10:55;;;;;;;0.93;0.50;;;20.90;61.80;;;;;;5113246;28;20169;-63
2021/08/27 02:13:20;;;;;;;1.02;0.60;;;20.90;61.90;;;;;;5094738;28;20165;-63
2021/08/27 02:15:46;;;;;;;0.98;0.60;;;20.90;61.80;;;;;;5094164;28;20245;-63
2021/08/27 02:18:11;;;;;;;2.08;0.77;;;20.90;61.80;;;;;;5077626;28;20568;-63
2021/08/27 02:20:37;;;;;;;1.88;0.70;;;20.90;61.80;;;;;;5112449;28;20717;-62
2021/08/27 02:23:03;;;;;;;0.95;0.60;;;20.80;61.80;;;;;;5112160;28;20248;-61
2021/08/27 02:25:29;;;;;;;1.88;0.43;;;20.80;61.80;;;;;;5094033;28;20609;-62
2021/08/27 02:27:55;;;;;;;1.08;0.60;;;20.80;61.80;;;;;;5077904;28;20165;-62
2021/08/27 02:30:20;;;;;;;0.93;0.65;;;20.80;61.80;;;;;;5111776;28;20184;-63
2021/08/27 02:32:46;;;;;;;0.90;0.70;;;20.80;61.80;;;;;;5094499;28;20309;-62
2021/08/27 02:35:11;;;;;;;1.08;0.60;;;20.80;61.80;;;;;;5093986;28;20264;-62
2021/08/27 02:37:38;;;;;;;1.10;0.68;;;20.80;61.80;;;;;;5076470;28;20173;-62
2021/08/27 02:40:04;;;;;;;1.75;0.50;;;20.80;62.00;;;;;;5077801;28;20177;-62
2021/08/27 02:42:31;;;;;;;1.75;0.68;;;20.80;61.90;;;;;;5112341;28;20169;-62
2021/08/27 02:44:58;;;;;;;0.65;0.57;;;20.80;61.90;;;;;;5111605;28;20704;-63
2021/08/27 02:47:23;;;;;;;0.73;0.50;;;20.80;61.90;;;;;;5112077;28;20573;-62
2021/08/27 02:49:49;;;;;;;1.48;0.60;;;20.80;61.90;;;;;;5112353;28;20169;-62
2021/08/27 02:52:31;;;;;;;0.47;0.47;;;20.80;61.90;;;;;;5093700;28;20188;-62
2021/08/27 02:55:22;;;;;;;1.33;0.77;;;20.80;62.00;;;;;;5095103;28;20576;-62
2021/08/27 02:58:16;;;;;;;1.00;0.65;;;20.80;62.00;;;;;;5093324;28;20663;-62
2021/08/27 03:00:51;;;;;;;0.40;0.40;;;20.80;62.00;;;;;;5112068;28;20181;-62
2021/08/27 03:03:18;;;;;;;2.05;0.73;;;20.80;62.10;;;;;;5078886;28;20177;-62
2021/08/27 03:05:44;;;;;;;1.42;0.50;;;20.80;62.10;;;;;;5092744;28;20287;-62
2021/08/27 03:08:13;;;;;;;1.35;0.80;;;20.80;62.10;;;;;;5077084;28;20258;-62
2021/08/27 03:11:02;;;;;;;1.10;0.57;;;20.80;62.10;;;;;;5093545;28;20173;-62
2021/08/27 03:13:54;;;;;;;1.08;0.52;;;20.80;62.10;;;;;;5093172;28;20518;-62
2021/08/27 03:16:20;;;;;;;1.63;0.50;;;20.80;62.10;;;;;;5111131;28;20184;-62
2021/08/27 03:19:04;;;;;;;0.40;0.40;;;20.80;62.10;;;;;;5076134;28;20183;-63
2021/08/27 03:21:38;;;;;;;0.68;0.60;;;20.80;62.10;;;;;;5093530;28;20173;-62
2021/08/27 03:24:14;;;;;;;0.57;0.50;;;20.80;62.10;;;;;;5094492;28;20183;-62
2021/08/27 03:26:39;;;;;;;1.45;0.70;;;20.80;62.10;;;;;;5093600;28;20204;-61
2021/08/27 03:29:06;;;;;;;1.60;0.60;;;20.80;62.10;;;;;;5111851;28;20664;-62
2021/08/27 03:31:31;;;;;;;1.02;0.65;;;20.80;63.00;;;;;;5111524;28;20253;-62
2021/08/27 03:33:58;;;;;;;1.05;0.65;;;20.80;62.00;;;;;;5092643;28;20242;-63
2021/08/27 03:36:27;;;;;;;0.45;0.43;;;20.70;62.10;;;;;;5076810;28;20592;-62
2021/08/27 03:38:54;;;;;;;0.98;0.55;;;20.70;62.10;;;;;;5093725;28;20183;-63
2021/08/27 03:41:20;;;;;;;0.95;0.55;;;20.70;62.10;;;;;;5075948;28;20260;-62
2021/08/27 03:43:45;;;;;;;0.35;0.35;;;20.70;62.20;;;;;;5093637;28;20264;-62
2021/08/27 03:46:12;;;;;;;1.45;0.60;;;20.70;62.10;;;;;;5078212;28;20202;-62
2021/08/27 03:48:38;;;;;;;1.48;0.63;;;20.70;62.10;;;;;;5096618;28;20719;-61
2021/08/27 03:51:03;;;;;;;1.50;0.50;;;20.70;62.10;;;;;;5080769;28;20268;-62
2021/08/27 03:53:29;;;;;;;0.93;0.70;;;20.70;62.10;;;;;;5115440;28;20169;-62
2021/08/27 03:55:54;;;;;;;0.95;0.57;;;20.70;62.00;;;;;;5096520;28;20272;-62
2021/08/27 03:58:21;;;;;;;0.57;0.50;;;20.70;62.10;;;;;;5096358;28;20181;-62
2021/08/27 04:00:47;;;;;;;1.02;0.77;;;20.70;62.20;;;;;;5114692;28;20615;-62
2021/08/27 04:03:13;;;;;;;0.50;0.50;;;20.70;62.20;;;;;;5097108;28;20534;-62
2021/08/27 04:05:43;;;;;;;1.17;0.43;;;20.70;62.20;;;;;;5115149;28;20230;-63
2021/08/27 04:08:08;;;;;;;1.15;0.50;;;20.70;62.20;;;;;;5079906;28;20191;-62
2021/08/27 04:10:35;;;;;;;0.60;0.50;;;20.70;62.20;;;;;;5115122;28;20176;-63
2021/08/27 04:13:00;;;;;;;0.80;0.65;;;20.70;62.20;;;;;;5115261;28;20488;-62
2021/08/27 04:15:26;;;;;;;1.75;0.60;;;20.70;62.20;;;;;;5114247;28;20176;-63
2021/08/27 04:17:51;;;;;;;0.70;0.60;;;20.70;62.30;;;;;;5115314;28;20188;-62
2021/08/27 04:20:17;;;;;;;1.15;0.63;;;20.70;62.30;;;;;;5115422;28;20169;-62
2021/08/27 04:22:42;;;;;;;1.58;0.68;;;20.70;62.40;;;;;;5114131;28;20656;-61
2021/08/27 04:25:08;;;;;;;0.85;0.77;;;20.60;62.20;;;;;;5114638;28;20695;-62
2021/08/27 04:27:34;;;;;;;3.03;0.80;;;20.70;62.40;;;;;;5114718;28;20180;-62
2021/08/27 04:29:59;;;;;;;1.85;0.73;;;20.70;62.40;;;;;;5114195;28;20200;-63
2021/08/27 04:32:25;;;;;;;1.83;0.65;;;20.60;62.20;;;;;;5114418;28;20173;-63
2021/08/27 04:34:50;;;;;;;1.25;0.85;;;20.60;62.20;;;;;;5115063;28;20538;-62
2021/08/27 04:37:16;;;;;;;3.05;0.65;;;20.70;62.40;;;;;;5114155;28;20249;-62
2021/08/27 04:39:41;;;;;;;1.25;0.70;;;20.60;62.30;;;;;;5114389;28;20170;-62
2021/08/27 04:42:07;;;;;;;1.13;0.50;;;20.60;62.20;;;;;;5114608;28;20523;-62
2021/08/27 04:44:32;;;;;;;0.90;0.50;;;20.60;62.30;;;;;;5113434;28;20208;-62
2021/08/27 04:46:58;;;;;;;1.88;0.50;;;20.60;62.30;;;;;;5114682;28;20180;-62
2021/08/27 04:49:23;;;;;;;1.38;0.60;;;20.60;62.40;;;;;;5114158;28;20173;-61
2021/08/27 04:51:49;;;;;;;1.05;0.65;;;20.60;62.40;;;;;;5113827;28;20578;-61
2021/08/27 04:54:15;;;;;;;0.93;0.63;;;20.60;62.40;;;;;;5114652;28;20169;-61
2021/08/27 04:56:40;;;;;;;0.68;0.60;;;20.60;62.40;;;;;;5113885;28;20193;-61
2021/08/27 04:59:06;;;;;;;0.75;0.40;;;20.60;62.50;;;;;;5113522;28;20169;-61
2021/08/27 05:01:31;;;;;;;0.70;0.60;;;20.60;62.40;;;;;;5113866;28;20172;-61
2021/08/27 05:03:57;;;;;;;0.60;0.57;;;20.60;62.40;;;;;;5114531;28;20502;-62
2021/08/27 05:06:22;;;;;;;0.77;0.65;;;20.60;62.30;;;;;;5113069;28;20257;-62
2021/08/27 05:08:48;;;;;;;2.88;0.80;;;20.60;62.40;;;;;;5114102;28;20543;-62
2021/08/27 05:11:13;;;;;;;0.60;0.50;;;20.60;62.40;;;;;;5113564;28;20627;-61
2021/08/27 05:13:39;;;;;;;1.25;0.80;;;20.60;62.40;;;;;;5113715;28;20897;-61
2021/08/27 05:16:04;;;;;;;0.75;0.52;;;20.60;62.40;;;;;;5113969;28;20212;-62
2021/08/27 05:18:30;;;;;;;1.00;0.57;;;20.60;62.40;;;;;;5113155;28;20271;-62
2021/08/27 05:20:56;;;;;;;1.13;0.55;;;20.60;62.40;;;;;;5113841;28;20208;-62
2021/08/27 05:23:22;;;;;;;0.73;0.52;;;20.60;62.40;;;;;;5113714;28;20177;-62
2021/08/27 05:25:47;;;;;;;0.85;0.60;;;20.60;62.50;;;;;;5112906;28;20281;-61
2021/08/27 05:28:13;;;;;;;0.60;0.40;;;20.60;62.40;;;;;;5113872;28;20188;-63
2021/08/27 05:30:38;;;;;;;0.50;0.45;;;20.60;62.40;;;;;;5113491;28;20234;-62
2021/08/27 05:33:04;;;;;;;1.75;0.82;;;20.60;62.40;;;;;;5113311;28;20218;-62
2021/08/27 05:35:29;;;;;;;1.73;0.77;;;20.60;62.50;;;;;;5112693;28;20585;-62
2021/08/27 05:37:55;;;;;;;1.27;0.50;;;20.60;62.40;;;;;;5113574;28;20169;-63
2021/08/27 05:40:20;;;;;;;0.88;0.60;;;20.60;62.30;;;;;;5112645;28;20173;-63
2021/08/27 05:42:46;;;;;;;0.45;0.45;;;20.60;62.20;;;;;;5113605;28;20177;-62
2021/08/27 05:45:11;;;;;;;1.45;0.70;;;20.70;62.40;;;;;;5113299;28;20204;-62
2021/08/27 05:47:37;;;;;;;0.65;0.60;;;20.60;62.40;;;;;;5112289;28;20568;-62
2021/08/27 05:50:03;;;;;;;0.77;0.50;;;20.60;62.50;;;;;;5113366;28;20206;-62
2021/08/27 05:52:29;;;;;;;1.10;0.50;;;20.60;62.50;;;;;;5113109;28;20184;-62
2021/08/27 05:54:54;;;;;;;1.25;0.52;;;20.60;62.40;;;;;;5112868;28;20170;-62
2021/08/27 05:57:20;;;;;;;0.60;0.57;;;20.60;62.40;;;;;;5113217;28;20169;-62
2021/08/27 05:59:45;;;;;;;0.95;0.77;;;20.60;62.40;;;;;;5094868;28;20181;-61
2021/08/27 06:02:11;;;;;;;0.55;0.55;;;20.70;62.50;;;;;;5112712;28;20272;-63
2021/08/27 06:04:36;;;;;;;0.50;0.50;;;20.60;62.40;;;;;;5112973;28;20550;-63
2021/08/27 06:07:02;;;;;;;0.38;0.30;;;20.60;62.30;;;;;;5113121;28;20599;-63
2021/08/27 06:09:27;;;;;;;0.95;0.57;;;20.60;62.40;;;;;;5111585;28;20225;-63
2021/08/27 06:11:53;;;;;;;1.48;0.70;;;20.60;63.30;;;;;;5113012;28;20222;-63
2021/08/27 06:14:18;;;;;;;0.60;0.50;;;20.60;62.50;;;;;;5112984;28;20218;-63
2021/08/27 06:16:44;;;;;;;0.98;0.73;;;20.60;62.50;;;;;;5112481;28;20259;-62
2021/08/27 06:19:09;;;;;;;1.02;0.40;;;20.60;62.60;;;;;;5112889;28;20251;-62
2021/08/27 06:21:37;;;;;;;0.60;0.60;;;20.60;62.60;;;;;;5111998;28;20173;-62
2021/08/27 06:24:03;;;;;;;1.00;0.40;;;20.60;62.60;;;;;;5112790;28;20172;-63
2021/08/27 06:26:28;;;;;;;1.13;0.60;;;20.60;62.60;;;;;;5112400;28;20216;-62
2021/08/27 06:28:54;;;;;;;0.50;0.50;;;20.60;62.60;;;;;;5111993;28;20218;-62
2021/08/27 06:31:20;;;;;;;0.98;0.50;;;20.60;62.50;;;;;;5112518;28;20173;-62
2021/08/27 06:33:45;;;;;;;2.10;0.63;;;20.60;62.50;;;;;;5112835;28;20169;-63
2021/08/27 06:36:11;;;;;;;0.63;0.43;;;20.60;62.60;;;;;;5112062;28;20169;-63
2021/08/27 06:38:36;;;;;;;1.90;0.75;;;20.60;62.50;;;;;;5112221;28;20177;-62
2021/08/27 06:41:03;;;;;;;1.10;0.57;;;20.60;62.60;;;;;;5112635;28;20165;-63
2021/08/27 06:43:31;;;;;;;0.77;0.60;;;20.60;62.60;;;;;;5111375;28;20652;-63
2021/08/27 06:45:57;;;;;;;0.70;0.40;;;20.60;62.60;;;;;;5112522;28;20303;-63
2021/08/27 06:48:23;;;;;;;0.60;0.50;;;20.70;62.50;;;;;;5112062;28;20668;-63
2021/08/27 06:50:48;;;;;;;0.75;0.65;;;20.70;62.60;;;;;;5111719;28;20181;-63
2021/08/27 06:53:14;;;;;;;1.17;0.70;;;20.70;62.60;;;;;;5112429;28;20672;-63
2021/08/27 06:55:39;;;;;;;0.73;0.50;;;20.70;62.60;;;;;;5112092;28;20636;-62
2021/08/27 06:58:05;;;;;;;0.93;0.50;;;20.70;62.60;;;;;;5111422;28;20173;-62
2021/08/27 07:00:31;;;;;;;1.63;0.57;;;20.70;62.60;;;;;;5112068;28;20185;-62
2021/08/27 07:02:56;;;;;;;1.65;0.85;;;20.70;62.60;;;;;;5112606;28;20169;-63
2021/08/27 07:05:22;;;;;;;1.48;0.57;;;20.70;62.50;;;;;;5111002;28;20514;-59
2021/08/27 07:07:47;;;;;;;1.13;0.60;;;20.80;62.50;;;;;;5112168;28;20243;-59
2021/08/27 07:10:13;;;;;;;1.15;0.70;;;20.70;62.50;;;;;;5112301;28;20173;-59
2021/08/27 07:12:39;;;;;;;2.58;0.90;;;20.80;62.50;;;;;;5111064;28;20177;-60
2021/08/27 07:15:05;;;;;;;3.83;0.88;;;20.80;62.50;;;;;;5112242;28;20181;-59
2021/08/27 07:17:31;;;;;;;3.47;1.20;;;20.80;62.30;;;;;;5111733;28;20509;-59
2021/08/27 07:19:56;;;;;;;3.35;0.85;;;20.90;62.20;;;;;;5111354;28;20260;-59
2021/08/27 07:22:22;;;;;;;0.82;0.52;;;20.90;62.20;;;;;;5115674;28;20638;-59
2021/08/27 07:24:47;;;;;;;2.30;0.70;;;20.90;62.20;;;;;;5115455;28;20263;-58
2021/08/27 07:27:13;;;;;;;3.38;0.85;;;20.90;62.20;;;;;;5116273;28;20204;-59
2021/08/27 07:29:39;;;;;;;2.75;0.90;;;21.00;62.20;;;;;;5097916;28;20260;-60
2021/08/27 07:32:06;;;;;;;2.35;0.90;;;21.00;62.20;;;;;;5115546;28;20540;-60
2021/08/27 07:34:32;;;;;;;1.55;0.60;;;21.00;62.30;;;;;;5115647;27;20551;-58
2021/08/27 07:36:58;;;;;;;1.13;0.80;;;21.00;62.20;;;;;;5122235;27;20684;-58
2021/08/27 07:39:23;;;;;;;2.17;0.85;;;21.00;62.40;;;;;;5127792;27;20585;-59
2021/08/27 07:41:49;;;;;;;1.75;0.98;;;21.00;62.30;;;;;;5116142;28;20173;-59
2021/08/27 07:44:14;;;;;;;1.70;0.70;;;21.00;62.30;;;;;;5127992;27;20173;-59
2021/08/27 07:46:40;;;;;;;3.40;0.98;;;21.00;62.40;;;;;;5135811;27;20265;-59
2021/08/27 07:49:05;;;;;;;5.07;0.90;;;21.00;62.40;;;;;;5136666;27;20180;-59
2021/08/27 07:51:31;;;;;;;4.43;0.80;;;21.00;62.40;;;;;;5135242;27;20172;-59
2021/08/27 07:53:56;;;;;;;2.13;0.68;;;21.00;62.40;;;;;;5115111;28;20165;-59
2021/08/27 07:56:22;;;;;;;1.38;0.90;;;21.00;62.60;;;;;;5115453;28;20173;-59
2021/08/27 07:58:48;;;;;;;3.30;0.88;;;21.00;62.60;;;;;;5115982;28;20169;-59
2021/08/27 08:01:13;;;;;;;1.90;0.90;;;21.00;62.70;;;;;;5115070;28;20177;-59
2021/08/27 08:03:39;;;;;;;2.65;1.02;;;21.00;62.70;;;;;;5115852;28;20173;-59
2021/08/27 08:06:04;;;;;;;1.98;0.80;;;21.00;62.60;;;;;;5115729;28;20204;-59
2021/08/27 08:08:30;;;;;;;1.20;1.00;;;21.00;62.60;;;;;;5114816;27;20173;-59
2021/08/27 08:10:55;;;;;;;2.67;0.82;;;21.00;62.60;;;;;;5136150;27;20498;-59
2021/08/27 08:13:22;;;;;;;2.20;0.80;;;21.00;62.50;;;;;;5136011;27;20180;-60
2021/08/27 08:15:47;;;;;;;1.75;0.63;;;21.10;62.50;;;;;;5135423;27;20232;-59
2021/08/27 08:18:13;;;;;;;2.97;0.70;;;21.10;62.40;;;;;;5135953;27;20646;-59
2021/08/27 08:20:38;;;;;;;1.60;0.77;;;21.10;62.30;;;;;;5135762;27;20187;-60
2021/08/27 08:23:04;;;;;;;2.00;0.77;;;21.20;62.30;;;;;;5135190;27;20168;-59
2021/08/27 08:25:29;;;;;;;1.65;0.98;;;21.10;63.10;;;;;;5135114;27;20220;-59
2021/08/27 08:27:55;;;;;;;2.85;0.90;;;21.20;62.30;;;;;;5125164;27;20538;-59
2021/08/27 08:30:20;;;;;;;2.28;0.90;;;21.30;62.20;;;;;;5122892;27;20177;-59
2021/08/27 08:32:47;;;;;;;2.58;0.70;;;21.30;62.90;;;;;;5122889;27;20523;-59
2021/08/27 08:35:12;;;;;;;3.65;0.90;;;21.30;62.10;;;;;;5124168;27;20641;-59
2021/08/27 08:37:39;;;;;;;1.38;0.80;;;21.40;62.10;;;;;;5119708;27;20177;-58
2021/08/27 08:40:05;;;;;;;2.53;0.82;;;21.40;62.00;;;;;;5114887;28;20609;-59
2021/08/27 08:42:30;;;;;;;1.90;0.77;;;21.40;62.10;;;;;;5113814;28;20657;-59
2021/08/27 08:44:56;;;;;;;1.90;0.90;;;21.50;62.10;;;;;;5116394;27;20243;-59
2021/08/27 08:47:21;;;;;;;2.47;0.70;;;21.50;62.10;;;;;;5135508;27;20228;-59
2021/08/27 08:49:47;;;;;;;1.98;0.70;;;21.50;62.10;;;;;;5099397;27;20164;-59
2021/08/27 08:52:19;;;;;;;1.63;0.80;;;21.50;62.10;;;;;;5099376;28;20173;-59
2021/08/27 08:54:47;;;;;;;2.42;0.80;;;21.60;62.10;;;;;;5096638;28;20264;-60
2021/08/27 08:57:15;;;;;;;1.40;0.90;;;21.50;62.10;;;;;;5096372;28;20258;-58
2021/08/27 08:59:41;;;;;;;2.15;0.93;;;21.60;62.20;;;;;;5114324;28;20176;-59
2021/08/27 09:02:08;;;;;;;2.60;0.77;;;21.70;62.20;;;;;;5114708;28;20252;-62
2021/08/27 09:04:33;;;;;;;4.57;0.80;;;21.60;62.10;;;;;;5113463;28;20177;-61
2021/08/27 09:06:59;;;;;;;1.40;1.00;;;21.70;61.90;;;;;;5114628;28;20272;-62
2021/08/27 09:09:33;;;;;;;1.67;1.00;;;21.70;61.90;;;;;;5078968;28;20273;-63
2021/08/27 09:11:58;;;;;;;1.15;0.70;;;21.70;62.10;;;;;;5113844;28;20170;-63
2021/08/27 09:14:28;;;;;;;2.92;0.95;;;21.70;61.80;;;;;;5114171;28;20195;-61
2021/08/27 09:17:04;;;;;;;1.13;0.60;;;21.60;62.00;;;;;;5114593;28;20170;-61
2021/08/27 09:19:53;;;;;;;1.88;0.80;;;21.70;62.10;;;;;;5113339;28;20226;-61
2021/08/27 09:22:18;;;;;;;3.03;0.88;;;21.70;62.00;;;;;;5103592;28;20490;-62
2021/08/27 09:24:44;;;;;;;4.55;1.00;;;21.70;62.00;;;;;;5113193;28;20217;-61
2021/08/27 09:27:09;;;;;;;2.10;1.20;;;21.70;62.00;;;;;;5114194;28;20173;-62
2021/08/27 09:29:42;;;;;;;0.75;0.70;;;21.60;62.10;;;;;;5113956;28;20196;-62
2021/08/27 09:32:22;;;;;;;2.90;0.80;;;21.60;62.20;;;;;;5113549;28;20174;-62
2021/08/27 09:35:10;;;;;;;1.70;0.75;;;21.60;63.30;;;;;;5114201;28;20173;-63
2021/08/27 09:37:37;;;;;;;1.17;0.70;;;21.50;62.30;;;;;;5098483;28;20251;-63
2021/08/27 09:40:19;;;;;;;2.45;0.80;;;21.60;62.30;;;;;;5113620;28;20188;-62
2021/08/27 09:42:50;;;;;;;2.83;1.10;;;21.50;62.20;;;;;;5114644;28;20191;-62
2021/08/27 09:45:16;;;;;;;1.83;0.93;;;21.60;62.20;;;;;;5133978;27;20671;-63
2021/08/27 09:48:00;;;;;;;3.60;0.80;;;21.60;62.20;;;;;;5133791;27;20181;-62
2021/08/27 09:50:27;;;;;;;1.70;0.98;;;21.60;62.10;;;;;;5134361;27;20228;-63
2021/08/27 09:53:00;;;;;;;2.03;1.00;;;21.60;62.10;;;;;;5133702;27;20177;-63
2021/08/27 09:55:27;;;;;;;6.45;1.63;;;21.70;62.00;;;;;;5134234;27;20187;-62
2021/08/27 09:58:12;;;;;;;3.75;0.95;;;21.80;61.80;;;;;;5134358;27;20172;-63
2021/08/27 10:00:41;;;;;;;0.93;0.75;;;21.80;61.80;;;;;;5133332;27;20255;-63
2021/08/27 10:03:20;;;;;;;1.25;0.80;;;21.80;61.70;;;;;;5134235;27;20700;-63
2021/08/27 10:05:48;;;;;;;2.97;1.00;;;21.80;61.80;;;;;;5134327;27;20243;-62
2021/08/27 10:08:20;;;;;;;1.45;1.00;;;21.70;61.90;;;;;;5133624;27;20169;-62
2021/08/27 10:10:48;;;;;;;1.80;1.20;;;21.70;61.90;;;;;;5134156;27;20176;-62
2021/08/27 10:13:13;;;;;;;1.67;1.08;;;21.70;62.10;;;;;;5134008;27;20177;-62
2021/08/27 10:15:39;;;;;;;2.13;0.77;;;21.60;62.10;;;;;;5132895;27;20631;-62
2021/08/27 10:18:09;;;;;;;1.25;0.65;;;21.60;62.30;;;;;;5133597;27;20630;-62
2021/08/27 10:20:42;;;;;;;2.17;0.82;;;21.50;62.40;;;;;;5132794;27;20188;-62
2021/08/27 10:23:13;;;;;;;1.83;0.80;;;21.50;62.60;;;;;;5133898;27;20331;-62
2021/08/27 10:25:38;;;;;;;3.30;0.95;;;21.50;62.70;;;;;;5133071;27;20235;-62
2021/08/27 10:28:04;;;;;;;1.67;0.85;;;21.50;63.50;;;;;;5132809;27;20175;-62
2021/08/27 10:30:48;;;;;;;2.60;0.88;;;21.50;62.60;;;;;;5133147;27;20187;-63
2021/08/27 10:33:14;;;;;;;4.68;0.90;;;21.50;62.60;;;;;;5133589;27;20510;-63
2021/08/27 10:35:40;;;;;;;1.80;1.10;;;21.50;62.50;;;;;;5132610;27;20222;-62
2021/08/27 10:38:06;;;;;;;1.48;0.70;;;21.50;62.50;;;;;;5133191;27;20165;-62
2021/08/27 10:40:48;;;;;;;1.40;0.77;;;21.50;62.40;;;;;;5133103;27;20179;-62
2021/08/27 10:43:13;;;;;;;1.23;0.80;;;21.60;62.40;;;;;;5127176;27;20255;-62
2021/08/27 10:45:51;;;;;;;1.92;0.93;;;21.60;62.20;;;;;;5112231;28;20303;-63
2021/08/27 10:48:24;;;;;;;2.13;0.80;;;21.60;62.30;;;;;;5112732;28;20561;-62
2021/08/27 10:50:54;;;;;;;2.78;1.02;;;21.50;62.30;;;;;;5112071;28;20188;-62
2021/08/27 10:53:19;;;;;;;2.92;0.88;;;21.50;62.40;;;;;;5112554;28;20165;-62
2021/08/27 10:55:45;;;;;;;2.20;1.20;;;21.50;62.50;;;;;;5111534;28;20237;-62
2021/08/27 10:58:14;;;;;;;3.15;1.05;;;21.50;62.60;;;;;;5112732;28;20648;-63
2021/08/27 11:00:41;;;;;;;1.63;0.80;;;21.50;62.60;;;;;;5112437;28;20203;-60
2021/08/27 11:03:08;;;;;;;2.80;1.30;;;21.50;62.70;;;;;;5112115;28;20173;-60
2021/08/27 11:05:44;;;;;;;1.27;0.70;;;21.50;62.60;;;;;;5112262;28;20567;-60
2021/08/27 11:08:17;;;;;;;1.45;0.80;;;21.50;62.60;;;;;;5112273;28;20173;-60
2021/08/27 11:11:17;;;;;;;1.67;0.80;;;21.60;62.40;;;;;;5111408;28;20200;-60
2021/08/27 11:13:43;;;;;;;1.85;0.65;;;21.60;62.30;;;;;;5111768;28;20188;-60
2021/08/27 11:16:21;;;;;;;1.85;0.93;;;21.70;62.20;;;;;;5112147;28;20631;-60
2021/08/27 11:18:47;;;;;;;4.32;0.70;;;21.70;62.20;;;;;;5111584;28;20200;-60
2021/08/27 11:21:35;;;;;;;2.50;0.95;;;21.70;62.40;;;;;;5112463;28;20173;-60
2021/08/27 11:24:17;;;;;;;0.98;0.77;;;21.70;62.40;;;;;;5111442;28;20174;-59
2021/08/27 11:26:57;;;;;;;1.27;0.90;;;21.70;62.40;;;;;;5111840;28;20232;-60
2021/08/27 11:29:45;;;;;;;2.75;1.35;;;21.80;62.40;;;;;;5112262;28;20179;-59
2021/08/27 11:32:16;;;;;;;1.27;0.60;;;21.80;62.20;;;;;;5111492;28;20177;-60
2021/08/27 11:35:01;;;;;;;1.77;0.90;;;21.90;62.10;;;;;;5111817;28;20533;-60
2021/08/27 11:37:33;;;;;;;1.58;0.80;;;22.00;62.00;;;;;;5093440;28;20215;-60
2021/08/27 11:39:58;;;;;;;2.38;0.88;;;22.00;61.90;;;;;;5111538;28;20177;-60
2021/08/27 11:42:24;;;;;;;2.15;0.80;;;22.10;61.80;;;;;;5111728;28;20196;-59
2021/08/27 11:45:23;;;;;;;2.65;1.10;;;21.90;61.80;;;;;;5130574;28;20200;-59
2021/08/27 11:47:52;;;;;;;2.15;1.05;;;22.00;61.90;;;;;;5087775;28;20496;-59
2021/08/27 11:50:27;;;;;;;1.70;0.80;;;22.00;62.00;;;;;;5132571;28;20211;-60
2021/08/27 11:52:56;;;;;;;2.35;0.82;;;22.00;61.90;;;;;;5131904;28;20630;-60
2021/08/27 11:55:22;;;;;;;1.77;0.73;;;22.10;61.80;;;;;;5132240;28;20188;-59
2021/08/27 11:57:52;;;;;;;3.13;0.82;;;22.20;61.70;;;;;;5132304;28;20160;-60
2021/08/27 12:00:38;;;;;;;2.05;1.10;;;22.20;61.60;;;;;;5131644;28;20183;-59
2021/08/27 12:03:03;;;;;;;1.55;0.85;;;22.10;61.80;;;;;;5132259;28;20631;-60
2021/08/27 12:05:29;;;;;;;1.88;0.70;;;22.00;62.00;;;;;;5132064;28;20212;-60
2021/08/27 12:08:15;;;;;;;1.98;0.70;;;22.00;62.10;;;;;;5134404;27;20164;-61
2021/08/27 12:10:42;;;;;;;1.90;0.70;;;22.00;61.80;;;;;;5135618;27;20188;-59
2021/08/27 12:13:11;;;;;;;1.73;1.00;;;22.10;61.70;;;;;;5117378;27;20172;-59
2021/08/27 12:15:40;;;;;;;2.83;0.73;;;22.10;61.70;;;;;;5135669;27;20634;-59
2021/08/27 12:18:09;;;;;;;1.77;0.95;;;22.00;61.70;;;;;;5136278;27;20177;-60
2021/08/27 12:20:38;;;;;;;1.98;0.88;;;22.00;61.90;;;;;;5135025;27;20180;-60
2021/08/27 12:23:13;;;;;;;2.47;1.05;;;22.00;62.00;;;;;;5135833;27;20175;-59
2021/08/27 12:25:41;;;;;;;1.40;0.60;;;22.00;62.10;;;;;;5135460;27;20284;-58
2021/08/27 12:28:06;;;;;;;1.30;0.70;;;21.90;62.20;;;;;;5135286;27;20165;-59
2021/08/27 12:30:32;;;;;;;2.80;0.60;;;22.00;62.10;;;;;;5135283;27;20183;-58
2021/08/27 12:32:58;;;;;;;1.73;0.60;;;22.10;61.70;;;;;;5135948;27;20176;-59
2021/08/27 12:35:34;;;;;;;1.10;0.77;;;22.20;61.50;;;;;;5134670;27;20188;-59
2021/08/27 12:38:00;;;;;;;0.80;0.80;;;22.30;61.30;;;;;;5135813;27;20180;-59
2021/08/27 12:40:26;;;;;;;3.08;1.08;;;22.30;61.10;;;;;;5099826;27;20646;-60
2021/08/27 12:43:05;;;;;;;2.97;0.82;;;22.20;61.40;;;;;;5132304;27;20630;-59
2021/08/27 12:45:49;;;;;;;0.77;0.70;;;22.10;61.70;;;;;;5114375;28;20220;-59
2021/08/27 12:48:19;;;;;;;1.42;0.82;;;22.00;61.90;;;;;;5114209;28;20184;-59
2021/08/27 12:50:50;;;;;;;2.35;1.20;;;22.00;62.00;;;;;;5114821;28;20177;-59
2021/08/27 12:53:17;;;;;;;1.48;0.90;;;22.10;61.80;;;;;;5114963;28;20309;-59
2021/08/27 12:55:42;;;;;;;2.35;1.17;;;22.20;61.60;;;;;;5113825;28;20260;-58